sensor_id;sensor_type;location;lat;lon;timestamp;temperature;humidity
28773;DHT22;15925;51.222;5.678;2023-04-15T00:02:16;7.70;99.90
28773;DHT22;15925;51.222;5.678;2023-04-15T00:04:43;7.70;99.90
28773;DHT22;15925;51.222;5.678;2023-04-15T00:07:09;7.80;99.90
28773;DHT22;15925;51.222;5.678;2023-04-15T00:09:35;8.00;99.90
28773;DHT22;15925;51.222;5.678;2023-04-15T00:12:01;7.90;99.90
28773;DHT22;15925;51.222;5.678;2023-04-15T00:14:27;7.90;99.90
28773;DHT22;15925;51.222;5.678;2023-04-15T00:16:52;7.80;99.90
28773;DHT22;15925;51.222;5.678;2023-04-15T00:19:20;7.90;99.90
28773;DHT22;15925;51.222;5.678;2023-04-15T00:21:46;7.90;99.90
28773;DHT22;15925;51.222;5.678;2023-04-15T00:24:12;8.00;99.90
28773;DHT22;15925;51.222;5.678;2023-04-15T00:26:38;7.90;99.90
28773;DHT22;15925;51.222;5.678;2023-04-15T00:29:03;8.00;99.90
28773;DHT22;15925;51.222;5.678;2023-04-15T00:31:30;7.90;99.90
28773;DHT22;15925;51.222;5.678;2023-04-15T00:33:56;7.90;99.90
28773;DHT22;15925;51.222;5.678;2023-04-15T00:36:21;8.00;99.90
28773;DHT22;15925;51.222;5.678;2023-04-15T00:38:49;8.00;99.90
28773;DHT22;15925;51.222;5.678;2023-04-15T00:41:14;8.00;99.90
28773;DHT22;15925;51.222;5.678;2023-04-15T00:43:40;8.00;99.90
28773;DHT22;15925;51.222;5.678;2023-04-15T00:46:06;8.00;99.90
28773;DHT22;15925;51.222;5.678;2023-04-15T00:48:32;8.00;99.90
28773;DHT22;15925;51.222;5.678;2023-04-15T00:50:58;8.00;99.90
28773;DHT22;15925;51.222;5.678;2023-04-15T00:53:23;8.00;99.90
28773;DHT22;15925;51.222;5.678;2023-04-15T00:55:49;8.00;99.90
28773;DHT22;15925;51.222;5.678;2023-04-15T00:58:15;8.10;99.90
28773;DHT22;15925;51.222;5.678;2023-04-15T01:00:41;8.20;99.90
28773;DHT22;15925;51.222;5.678;2023-04-15T01:03:07;8.10;99.90
28773;DHT22;15925;51.222;5.678;2023-04-15T01:05:33;8.20;99.90
28773;DHT22;15925;51.222;5.678;2023-04-15T01:07:59;8.20;99.90
28773;DHT22;15925;51.222;5.678;2023-04-15T01:10:25;8.10;99.90
28773;DHT22;15925;51.222;5.678;2023-04-15T01:12:51;8.10;99.90
28773;DHT22;15925;51.222;5.678;2023-04-15T01:15:17;8.10;99.90
28773;DHT22;15925;51.222;5.678;2023-04-15T01:17:43;8.00;99.90
28773;DHT22;15925;51.222;5.678;2023-04-15T01:20:09;8.10;99.90
28773;DHT22;15925;51.222;5.678;2023-04-15T01:22:36;8.00;99.90
28773;DHT22;15925;51.222;5.678;2023-04-15T01:25:07;7.90;99.90
28773;DHT22;15925;51.222;5.678;2023-04-15T01:27:34;7.90;99.90
28773;DHT22;15925;51.222;5.678;2023-04-15T01:30:01;7.90;99.90
28773;DHT22;15925;51.222;5.678;2023-04-15T01:32:30;7.90;99.90
28773;DHT22;15925;51.222;5.678;2023-04-15T01:34:56;7.80;99.90
28773;DHT22;15925;51.222;5.678;2023-04-15T01:37:23;7.80;99.90
28773;DHT22;15925;51.222;5.678;2023-04-15T01:39:49;7.90;99.90
28773;DHT22;15925;51.222;5.678;2023-04-15T01:42:15;7.80;99.90
28773;DHT22;15925;51.222;5.678;2023-04-15T01:44:41;7.80;99.90
28773;DHT22;15925;51.222;5.678;2023-04-15T01:47:10;7.70;99.90
28773;DHT22;15925;51.222;5.678;2023-04-15T01:49:36;7.70;99.90
28773;DHT22;15925;51.222;5.678;2023-04-15T01:52:02;7.70;99.90
28773;DHT22;15925;51.222;5.678;2023-04-15T01:54:28;7.70;99.90
28773;DHT22;15925;51.222;5.678;2023-04-15T01:56:53;7.70;99.90
28773;DHT22;15925;51.222;5.678;2023-04-15T01:59:19;7.70;99.90
28773;DHT22;15925;51.222;5.678;2023-04-15T02:01:45;7.60;99.90
28773;DHT22;15925;51.222;5.678;2023-04-15T02:04:10;7.70;99.90
28773;DHT22;15925;51.222;5.678;2023-04-15T02:06:42;7.70;99.90
28773;DHT22;15925;51.222;5.678;2023-04-15T02:09:08;7.70;99.90
28773;DHT22;15925;51.222;5.678;2023-04-15T02:11:34;7.30;99.90
28773;DHT22;15925;51.222;5.678;2023-04-15T02:14:02;7.40;99.90
28773;DHT22;15925;51.222;5.678;2023-04-15T02:16:31;7.30;99.90
28773;DHT22;15925;51.222;5.678;2023-04-15T02:18:58;7.40;99.90
28773;DHT22;15925;51.222;5.678;2023-04-15T02:21:25;7.60;99.90
28773;DHT22;15925;51.222;5.678;2023-04-15T02:23:51;7.60;99.90
28773;DHT22;15925;51.222;5.678;2023-04-15T02:26:18;7.50;99.90
28773;DHT22;15925;51.222;5.678;2023-04-15T02:28:44;7.50;99.90
28773;DHT22;15925;51.222;5.678;2023-04-15T02:31:13;7.50;99.90
28773;DHT22;15925;51.222;5.678;2023-04-15T02:33:39;7.50;99.90
28773;DHT22;15925;51.222;5.678;2023-04-15T02:36:05;7.50;99.90
28773;DHT22;15925;51.222;5.678;2023-04-15T02:38:32;7.40;99.90
28773;DHT22;15925;51.222;5.678;2023-04-15T02:40:57;7.30;99.90
28773;DHT22;15925;51.222;5.678;2023-04-15T02:43:23;7.40;99.90
28773;DHT22;15925;51.222;5.678;2023-04-15T02:45:50;7.30;99.90
28773;DHT22;15925;51.222;5.678;2023-04-15T02:48:16;7.30;99.90
28773;DHT22;15925;51.222;5.678;2023-04-15T02:50:44;7.30;99.90
28773;DHT22;15925;51.222;5.678;2023-04-15T02:53:12;7.20;99.90
28773;DHT22;15925;51.222;5.678;2023-04-15T02:55:39;7.20;99.90
28773;DHT22;15925;51.222;5.678;2023-04-15T02:58:05;7.10;99.90
28773;DHT22;15925;51.222;5.678;2023-04-15T03:00:31;7.10;99.90
28773;DHT22;15925;51.222;5.678;2023-04-15T03:02:58;7.20;99.90
28773;DHT22;15925;51.222;5.678;2023-04-15T03:05:23;7.10;99.90
28773;DHT22;15925;51.222;5.678;2023-04-15T03:07:50;7.10;99.90
28773;DHT22;15925;51.222;5.678;2023-04-15T03:10:17;7.00;99.90
28773;DHT22;15925;51.222;5.678;2023-04-15T03:12:42;6.90;99.90
28773;DHT22;15925;51.222;5.678;2023-04-15T03:15:12;6.80;99.90
28773;DHT22;15925;51.222;5.678;2023-04-15T03:17:43;6.90;99.90
28773;DHT22;15925;51.222;5.678;2023-04-15T03:20:08;6.80;99.90
28773;DHT22;15925;51.222;5.678;2023-04-15T03:22:34;6.80;99.90
28773;DHT22;15925;51.222;5.678;2023-04-15T03:25:01;6.80;99.90
28773;DHT22;15925;51.222;5.678;2023-04-15T03:27:27;6.60;99.90
28773;DHT22;15925;51.222;5.678;2023-04-15T03:29:56;6.70;99.90
28773;DHT22;15925;51.222;5.678;2023-04-15T03:32:23;6.50;99.90
28773;DHT22;15925;51.222;5.678;2023-04-15T03:34:49;6.60;99.90
28773;DHT22;15925;51.222;5.678;2023-04-15T03:37:15;6.60;99.90
28773;DHT22;15925;51.222;5.678;2023-04-15T03:39:41;6.60;99.90
28773;DHT22;15925;51.222;5.678;2023-04-15T03:42:06;6.60;99.90
28773;DHT22;15925;51.222;5.678;2023-04-15T03:44:32;6.50;99.90
28773;DHT22;15925;51.222;5.678;2023-04-15T03:46:57;6.50;99.90
28773;DHT22;15925;51.222;5.678;2023-04-15T03:49:23;6.50;99.90
28773;DHT22;15925;51.222;5.678;2023-04-15T03:51:49;6.50;99.90
28773;DHT22;15925;51.222;5.678;2023-04-15T03:54:15;6.60;99.90
28773;DHT22;15925;51.222;5.678;2023-04-15T03:56:40;6.50;99.90
28773;DHT22;15925;51.222;5.678;2023-04-15T03:59:06;6.60;99.90
28773;DHT22;15925;51.222;5.678;2023-04-15T04:01:31;6.60;99.90
28773;DHT22;15925;51.222;5.678;2023-04-15T04:03:57;6.60;99.90
28773;DHT22;15925;51.222;5.678;2023-04-15T04:06:23;6.70;99.90
28773;DHT22;15925;51.222;5.678;2023-04-15T04:08:48;6.60;99.90
28773;DHT22;15925;51.222;5.678;2023-04-15T04:11:14;6.70;99.90
28773;DHT22;15925;51.222;5.678;2023-04-15T04:13:40;6.60;99.90
28773;DHT22;15925;51.222;5.678;2023-04-15T04:16:06;6.70;99.90
28773;DHT22;15925;51.222;5.678;2023-04-15T04:18:32;6.60;99.90
28773;DHT22;15925;51.222;5.678;2023-04-15T04:20:57;6.60;99.90
28773;DHT22;15925;51.222;5.678;2023-04-15T04:23:23;6.60;99.90
28773;DHT22;15925;51.222;5.678;2023-04-15T04:25:49;6.60;99.90
28773;DHT22;15925;51.222;5.678;2023-04-15T04:28:15;6.50;99.90
28773;DHT22;15925;51.222;5.678;2023-04-15T04:30:41;6.50;99.90
28773;DHT22;15925;51.222;5.678;2023-04-15T04:33:07;6.50;99.90
28773;DHT22;15925;51.222;5.678;2023-04-15T04:35:32;6.50;99.90
28773;DHT22;15925;51.222;5.678;2023-04-15T04:38:02;6.50;99.90
28773;DHT22;15925;51.222;5.678;2023-04-15T04:40:28;6.40;99.90
28773;DHT22;15925;51.222;5.678;2023-04-15T04:42:53;6.40;99.90
28773;DHT22;15925;51.222;5.678;2023-04-15T04:45:19;6.40;99.90
28773;DHT22;15925;51.222;5.678;2023-04-15T04:47:45;6.30;99.90
28773;DHT22;15925;51.222;5.678;2023-04-15T04:50:13;6.40;99.90
28773;DHT22;15925;51.222;5.678;2023-04-15T04:52:39;6.40;99.90
28773;DHT22;15925;51.222;5.678;2023-04-15T04:55:05;6.40;99.90
28773;DHT22;15925;51.222;5.678;2023-04-15T04:57:33;6.40;99.90
28773;DHT22;15925;51.222;5.678;2023-04-15T05:00:00;6.50;99.90
28773;DHT22;15925;51.222;5.678;2023-04-15T05:02:26;6.50;99.90
28773;DHT22;15925;51.222;5.678;2023-04-15T05:04:52;6.30;99.90
28773;DHT22;15925;51.222;5.678;2023-04-15T05:07:19;6.20;99.90
28773;DHT22;15925;51.222;5.678;2023-04-15T05:09:45;6.20;99.90
28773;DHT22;15925;51.222;5.678;2023-04-15T05:12:11;6.20;99.90
28773;DHT22;15925;51.222;5.678;2023-04-15T05:14:40;6.20;99.90
28773;DHT22;15925;51.222;5.678;2023-04-15T05:17:06;6.20;99.90
28773;DHT22;15925;51.222;5.678;2023-04-15T05:19:32;6.20;99.90
28773;DHT22;15925;51.222;5.678;2023-04-15T05:21:57;6.30;99.90
28773;DHT22;15925;51.222;5.678;2023-04-15T05:24:23;6.20;99.90
28773;DHT22;15925;51.222;5.678;2023-04-15T05:26:49;6.20;99.90
28773;DHT22;15925;51.222;5.678;2023-04-15T05:29:15;6.20;99.90
28773;DHT22;15925;51.222;5.678;2023-04-15T05:31:41;6.10;99.90
28773;DHT22;15925;51.222;5.678;2023-04-15T05:34:07;6.20;99.90
28773;DHT22;15925;51.222;5.678;2023-04-15T05:36:33;6.20;99.90
28773;DHT22;15925;51.222;5.678;2023-04-15T05:38:58;6.20;99.90
28773;DHT22;15925;51.222;5.678;2023-04-15T05:41:25;6.20;99.90
28773;DHT22;15925;51.222;5.678;2023-04-15T05:43:50;6.20;99.90
28773;DHT22;15925;51.222;5.678;2023-04-15T05:46:16;6.20;99.90
28773;DHT22;15925;51.222;5.678;2023-04-15T05:48:42;6.20;99.90
28773;DHT22;15925;51.222;5.678;2023-04-15T05:51:07;6.30;99.90
28773;DHT22;15925;51.222;5.678;2023-04-15T05:53:33;6.30;99.90
28773;DHT22;15925;51.222;5.678;2023-04-15T05:55:59;6.20;99.90
28773;DHT22;15925;51.222;5.678;2023-04-15T05:58:25;6.20;99.90
28773;DHT22;15925;51.222;5.678;2023-04-15T06:00:51;6.20;99.90
28773;DHT22;15925;51.222;5.678;2023-04-15T06:03:17;6.20;99.90
28773;DHT22;15925;51.222;5.678;2023-04-15T06:05:43;6.10;99.90
28773;DHT22;15925;51.222;5.678;2023-04-15T06:08:09;6.20;99.90
28773;DHT22;15925;51.222;5.678;2023-04-15T06:10:35;6.30;99.90
28773;DHT22;15925;51.222;5.678;2023-04-15T06:13:01;6.30;99.90
28773;DHT22;15925;51.222;5.678;2023-04-15T06:15:28;6.30;99.90
28773;DHT22;15925;51.222;5.678;2023-04-15T06:17:54;6.40;99.90
28773;DHT22;15925;51.222;5.678;2023-04-15T06:20:20;6.40;99.90
28773;DHT22;15925;51.222;5.678;2023-04-15T06:22:46;6.40;99.90
28773;DHT22;15925;51.222;5.678;2023-04-15T06:25:11;6.40;99.90
28773;DHT22;15925;51.222;5.678;2023-04-15T06:27:37;6.40;99.90
28773;DHT22;15925;51.222;5.678;2023-04-15T06:30:03;6.40;99.90
28773;DHT22;15925;51.222;5.678;2023-04-15T06:32:29;6.50;99.90
28773;DHT22;15925;51.222;5.678;2023-04-15T06:34:55;6.50;99.90
28773;DHT22;15925;51.222;5.678;2023-04-15T06:37:21;6.60;99.90
28773;DHT22;15925;51.222;5.678;2023-04-15T06:39:46;6.60;99.90
28773;DHT22;15925;51.222;5.678;2023-04-15T06:42:12;6.70;99.90
28773;DHT22;15925;51.222;5.678;2023-04-15T06:44:38;6.80;99.90
28773;DHT22;15925;51.222;5.678;2023-04-15T06:47:04;6.80;99.90
28773;DHT22;15925;51.222;5.678;2023-04-15T06:49:30;6.90;99.90
28773;DHT22;15925;51.222;5.678;2023-04-15T06:51:56;6.90;99.90
28773;DHT22;15925;51.222;5.678;2023-04-15T06:54:22;7.00;99.90
28773;DHT22;15925;51.222;5.678;2023-04-15T06:56:47;7.10;99.90
28773;DHT22;15925;51.222;5.678;2023-04-15T06:59:13;7.20;99.90
28773;DHT22;15925;51.222;5.678;2023-04-15T07:01:42;7.20;99.90
28773;DHT22;15925;51.222;5.678;2023-04-15T07:04:08;7.30;99.90
28773;DHT22;15925;51.222;5.678;2023-04-15T07:06:33;7.40;99.90
28773;DHT22;15925;51.222;5.678;2023-04-15T07:09:00;7.50;99.90
28773;DHT22;15925;51.222;5.678;2023-04-15T07:11:26;7.50;99.90
28773;DHT22;15925;51.222;5.678;2023-04-15T07:13:51;7.60;99.90
28773;DHT22;15925;51.222;5.678;2023-04-15T07:16:17;7.70;99.90
28773;DHT22;15925;51.222;5.678;2023-04-15T07:18:43;7.80;99.90
28773;DHT22;15925;51.222;5.678;2023-04-15T07:21:09;7.90;99.90
28773;DHT22;15925;51.222;5.678;2023-04-15T07:23:34;8.00;99.90
28773;DHT22;15925;51.222;5.678;2023-04-15T07:26:00;8.10;99.90
28773;DHT22;15925;51.222;5.678;2023-04-15T07:28:26;8.10;99.90
28773;DHT22;15925;51.222;5.678;2023-04-15T07:30:52;8.30;99.90
28773;DHT22;15925;51.222;5.678;2023-04-15T07:33:18;8.30;99.90
28773;DHT22;15925;51.222;5.678;2023-04-15T07:35:43;8.40;99.90
28773;DHT22;15925;51.222;5.678;2023-04-15T07:38:09;8.40;99.90
28773;DHT22;15925;51.222;5.678;2023-04-15T07:40:38;8.50;99.90
28773;DHT22;15925;51.222;5.678;2023-04-15T07:43:05;8.60;99.90
28773;DHT22;15925;51.222;5.678;2023-04-15T07:45:31;8.70;99.90
28773;DHT22;15925;51.222;5.678;2023-04-15T07:47:56;8.80;99.90
28773;DHT22;15925;51.222;5.678;2023-04-15T07:50:22;8.90;99.90
28773;DHT22;15925;51.222;5.678;2023-04-15T07:52:48;9.00;99.90
28773;DHT22;15925;51.222;5.678;2023-04-15T07:55:14;9.10;99.90
28773;DHT22;15925;51.222;5.678;2023-04-15T07:57:43;9.30;99.90
28773;DHT22;15925;51.222;5.678;2023-04-15T08:00:09;9.40;99.90
28773;DHT22;15925;51.222;5.678;2023-04-15T08:02:38;9.50;99.90
28773;DHT22;15925;51.222;5.678;2023-04-15T08:05:04;9.70;99.90
28773;DHT22;15925;51.222;5.678;2023-04-15T08:07:30;9.80;99.90
28773;DHT22;15925;51.222;5.678;2023-04-15T08:09:56;9.80;99.90
28773;DHT22;15925;51.222;5.678;2023-04-15T08:12:22;9.90;99.90
28773;DHT22;15925;51.222;5.678;2023-04-15T08:14:48;10.00;99.90
28773;DHT22;15925;51.222;5.678;2023-04-15T08:17:14;10.10;99.90
28773;DHT22;15925;51.222;5.678;2023-04-15T08:19:40;10.20;99.90
28773;DHT22;15925;51.222;5.678;2023-04-15T08:22:06;10.40;99.90
28773;DHT22;15925;51.222;5.678;2023-04-15T08:24:32;10.50;99.90
28773;DHT22;15925;51.222;5.678;2023-04-15T08:26:58;10.70;99.90
28773;DHT22;15925;51.222;5.678;2023-04-15T08:29:24;10.80;99.90
28773;DHT22;15925;51.222;5.678;2023-04-15T08:31:50;10.90;99.90
28773;DHT22;15925;51.222;5.678;2023-04-15T08:34:15;11.00;99.90
28773;DHT22;15925;51.222;5.678;2023-04-15T08:36:42;11.00;99.90
28773;DHT22;15925;51.222;5.678;2023-04-15T08:39:08;11.00;99.90
28773;DHT22;15925;51.222;5.678;2023-04-15T08:41:44;11.20;99.90
28773;DHT22;15925;51.222;5.678;2023-04-15T08:44:12;11.20;99.90
28773;DHT22;15925;51.222;5.678;2023-04-15T08:46:38;11.40;99.90
28773;DHT22;15925;51.222;5.678;2023-04-15T08:49:04;11.50;99.90
28773;DHT22;15925;51.222;5.678;2023-04-15T08:51:30;11.60;99.90
28773;DHT22;15925;51.222;5.678;2023-04-15T08:53:56;11.60;99.90
28773;DHT22;15925;51.222;5.678;2023-04-15T08:56:23;11.70;99.90
28773;DHT22;15925;51.222;5.678;2023-04-15T08:58:49;11.70;99.90
28773;DHT22;15925;51.222;5.678;2023-04-15T09:01:15;11.80;99.90
28773;DHT22;15925;51.222;5.678;2023-04-15T09:03:41;11.80;99.90
28773;DHT22;15925;51.222;5.678;2023-04-15T09:06:07;11.90;99.90
28773;DHT22;15925;51.222;5.678;2023-04-15T09:08:33;11.90;99.90
28773;DHT22;15925;51.222;5.678;2023-04-15T09:11:01;11.80;99.90
28773;DHT22;15925;51.222;5.678;2023-04-15T09:13:27;11.80;99.90
28773;DHT22;15925;51.222;5.678;2023-04-15T09:15:53;11.90;99.90
28773;DHT22;15925;51.222;5.678;2023-04-15T09:18:29;11.90;99.90
28773;DHT22;15925;51.222;5.678;2023-04-15T09:20:55;11.80;99.90
28773;DHT22;15925;51.222;5.678;2023-04-15T09:23:21;11.90;99.90
28773;DHT22;15925;51.222;5.678;2023-04-15T09:25:47;11.90;99.90
28773;DHT22;15925;51.222;5.678;2023-04-15T09:28:13;12.20;99.90
28773;DHT22;15925;51.222;5.678;2023-04-15T09:30:41;12.30;99.90
28773;DHT22;15925;51.222;5.678;2023-04-15T09:33:10;12.30;99.90
28773;DHT22;15925;51.222;5.678;2023-04-15T09:35:38;12.50;99.90
28773;DHT22;15925;51.222;5.678;2023-04-15T09:38:05;12.50;99.90
28773;DHT22;15925;51.222;5.678;2023-04-15T09:40:35;12.40;99.90
28773;DHT22;15925;51.222;5.678;2023-04-15T09:43:02;12.30;99.90
28773;DHT22;15925;51.222;5.678;2023-04-15T09:45:27;12.30;99.90
28773;DHT22;15925;51.222;5.678;2023-04-15T09:47:53;12.30;99.90
28773;DHT22;15925;51.222;5.678;2023-04-15T09:50:19;12.50;99.90
28773;DHT22;15925;51.222;5.678;2023-04-15T09:52:45;12.70;99.90
28773;DHT22;15925;51.222;5.678;2023-04-15T09:55:12;12.70;99.90
28773;DHT22;15925;51.222;5.678;2023-04-15T09:57:38;12.60;99.90
28773;DHT22;15925;51.222;5.678;2023-04-15T10:00:06;12.70;99.90
28773;DHT22;15925;51.222;5.678;2023-04-15T10:02:34;12.70;99.90
28773;DHT22;15925;51.222;5.678;2023-04-15T10:05:02;12.80;99.90
28773;DHT22;15925;51.222;5.678;2023-04-15T10:07:31;12.90;99.90
28773;DHT22;15925;51.222;5.678;2023-04-15T10:09:58;12.90;99.90
28773;DHT22;15925;51.222;5.678;2023-04-15T10:12:24;13.00;99.90
28773;DHT22;15925;51.222;5.678;2023-04-15T10:14:52;13.10;99.90
28773;DHT22;15925;51.222;5.678;2023-04-15T10:17:17;13.30;99.90
28773;DHT22;15925;51.222;5.678;2023-04-15T10:19:46;13.30;99.90
28773;DHT22;15925;51.222;5.678;2023-04-15T10:22:13;13.30;99.90
28773;DHT22;15925;51.222;5.678;2023-04-15T10:24:38;13.30;99.90
28773;DHT22;15925;51.222;5.678;2023-04-15T10:27:04;13.30;99.90
28773;DHT22;15925;51.222;5.678;2023-04-15T10:29:30;13.40;99.90
28773;DHT22;15925;51.222;5.678;2023-04-15T10:31:56;13.60;99.90
28773;DHT22;15925;51.222;5.678;2023-04-15T10:34:23;13.50;99.90
28773;DHT22;15925;51.222;5.678;2023-04-15T10:36:49;13.70;99.90
28773;DHT22;15925;51.222;5.678;2023-04-15T10:42:07;13.70;99.90
28773;DHT22;15925;51.222;5.678;2023-04-15T10:44:34;13.80;99.90
28773;DHT22;15925;51.222;5.678;2023-04-15T10:47:03;13.50;99.90
28773;DHT22;15925;51.222;5.678;2023-04-15T10:49:29;13.70;99.90
28773;DHT22;15925;51.222;5.678;2023-04-15T10:51:58;13.80;99.90
28773;DHT22;15925;51.222;5.678;2023-04-15T11:02:17;14.00;99.90
28773;DHT22;15925;51.222;5.678;2023-04-15T11:04:56;14.00;99.90
28773;DHT22;15925;51.222;5.678;2023-04-15T11:10:49;13.90;99.90
28773;DHT22;15925;51.222;5.678;2023-04-15T11:12:55;13.80;99.90
28773;DHT22;15925;51.222;5.678;2023-04-15T11:17:50;14.00;99.90
28773;DHT22;15925;51.222;5.678;2023-04-15T11:20:16;14.00;99.90
28773;DHT22;15925;51.222;5.678;2023-04-15T11:22:52;14.10;99.90
28773;DHT22;15925;51.222;5.678;2023-04-15T11:25:22;14.00;99.90
28773;DHT22;15925;51.222;5.678;2023-04-15T11:27:47;13.90;99.90
28773;DHT22;15925;51.222;5.678;2023-04-15T11:30:18;14.00;99.90
28773;DHT22;15925;51.222;5.678;2023-04-15T11:32:45;14.00;99.90
28773;DHT22;15925;51.222;5.678;2023-04-15T11:35:11;14.10;99.90
28773;DHT22;15925;51.222;5.678;2023-04-15T11:37:36;14.00;99.90
28773;DHT22;15925;51.222;5.678;2023-04-15T11:40:02;14.20;99.90
28773;DHT22;15925;51.222;5.678;2023-04-15T11:42:28;14.30;99.90
28773;DHT22;15925;51.222;5.678;2023-04-15T11:45:05;14.30;99.90
28773;DHT22;15925;51.222;5.678;2023-04-15T11:47:30;14.30;99.90
28773;DHT22;15925;51.222;5.678;2023-04-15T11:49:56;14.30;99.90
28773;DHT22;15925;51.222;5.678;2023-04-15T11:52:22;14.30;99.90
28773;DHT22;15925;51.222;5.678;2023-04-15T11:54:50;14.40;99.90
28773;DHT22;15925;51.222;5.678;2023-04-15T11:57:16;14.40;99.90
28773;DHT22;15925;51.222;5.678;2023-04-15T11:59:42;14.40;99.90
28773;DHT22;15925;51.222;5.678;2023-04-15T12:02:11;14.40;99.90
28773;DHT22;15925;51.222;5.678;2023-04-15T12:04:37;14.50;99.90
28773;DHT22;15925;51.222;5.678;2023-04-15T12:07:03;14.50;99.90
28773;DHT22;15925;51.222;5.678;2023-04-15T12:09:29;14.40;99.90
28773;DHT22;15925;51.222;5.678;2023-04-15T12:11:56;14.40;99.90
28773;DHT22;15925;51.222;5.678;2023-04-15T12:14:25;14.30;99.90
28773;DHT22;15925;51.222;5.678;2023-04-15T12:16:58;14.20;99.90
28773;DHT22;15925;51.222;5.678;2023-04-15T12:19:42;14.10;99.90
28773;DHT22;15925;51.222;5.678;2023-04-15T12:22:10;14.10;99.90
28773;DHT22;15925;51.222;5.678;2023-04-15T12:24:37;14.00;99.90
28773;DHT22;15925;51.222;5.678;2023-04-15T12:27:24;14.20;99.90
28773;DHT22;15925;51.222;5.678;2023-04-15T12:29:50;14.20;99.90
28773;DHT22;15925;51.222;5.678;2023-04-15T12:32:27;14.20;99.90
28773;DHT22;15925;51.222;5.678;2023-04-15T12:34:53;14.50;99.90
28773;DHT22;15925;51.222;5.678;2023-04-15T12:37:19;14.50;99.90
28773;DHT22;15925;51.222;5.678;2023-04-15T12:39:46;14.50;99.90
28773;DHT22;15925;51.222;5.678;2023-04-15T12:42:13;14.60;99.90
28773;DHT22;15925;51.222;5.678;2023-04-15T12:44:39;14.60;99.90
28773;DHT22;15925;51.222;5.678;2023-04-15T12:47:07;14.60;99.90
28773;DHT22;15925;51.222;5.678;2023-04-15T12:49:33;14.70;99.90
28773;DHT22;15925;51.222;5.678;2023-04-15T12:51:59;14.80;99.90
28773;DHT22;15925;51.222;5.678;2023-04-15T12:54:25;14.70;99.90
28773;DHT22;15925;51.222;5.678;2023-04-15T12:56:51;14.70;99.90
28773;DHT22;15925;51.222;5.678;2023-04-15T12:59:17;14.90;99.90
28773;DHT22;15925;51.222;5.678;2023-04-15T13:01:43;14.80;99.90
28773;DHT22;15925;51.222;5.678;2023-04-15T13:04:09;14.90;99.90
28773;DHT22;15925;51.222;5.678;2023-04-15T13:06:34;15.20;99.90
28773;DHT22;15925;51.222;5.678;2023-04-15T13:09:01;15.20;99.90
28773;DHT22;15925;51.222;5.678;2023-04-15T13:11:28;15.10;99.90
28773;DHT22;15925;51.222;5.678;2023-04-15T13:13:55;14.80;99.90
28773;DHT22;15925;51.222;5.678;2023-04-15T13:16:22;14.90;99.90
28773;DHT22;15925;51.222;5.678;2023-04-15T13:18:48;15.00;99.90
28773;DHT22;15925;51.222;5.678;2023-04-15T13:21:13;14.90;99.90
28773;DHT22;15925;51.222;5.678;2023-04-15T13:23:40;14.80;99.90
28773;DHT22;15925;51.222;5.678;2023-04-15T13:26:06;14.80;99.90
28773;DHT22;15925;51.222;5.678;2023-04-15T13:28:32;15.00;99.90
28773;DHT22;15925;51.222;5.678;2023-04-15T13:30:58;14.90;99.90
28773;DHT22;15925;51.222;5.678;2023-04-15T13:33:25;14.80;99.90
28773;DHT22;15925;51.222;5.678;2023-04-15T13:35:51;14.80;99.90
28773;DHT22;15925;51.222;5.678;2023-04-15T13:38:16;14.60;99.90
28773;DHT22;15925;51.222;5.678;2023-04-15T13:40:42;14.60;99.90
28773;DHT22;15925;51.222;5.678;2023-04-15T13:43:08;14.60;99.90
28773;DHT22;15925;51.222;5.678;2023-04-15T13:45:33;14.60;99.90
28773;DHT22;15925;51.222;5.678;2023-04-15T13:47:59;14.60;99.90
28773;DHT22;15925;51.222;5.678;2023-04-15T13:50:25;14.60;99.90
28773;DHT22;15925;51.222;5.678;2023-04-15T13:53:42;14.90;99.90
28773;DHT22;15925;51.222;5.678;2023-04-15T13:56:09;14.90;99.90
28773;DHT22;15925;51.222;5.678;2023-04-15T13:58:35;14.90;99.90
28773;DHT22;15925;51.222;5.678;2023-04-15T14:01:02;14.80;99.90
28773;DHT22;15925;51.222;5.678;2023-04-15T14:03:28;14.90;99.90
28773;DHT22;15925;51.222;5.678;2023-04-15T14:05:53;14.90;99.90
28773;DHT22;15925;51.222;5.678;2023-04-15T14:08:21;14.90;99.90
28773;DHT22;15925;51.222;5.678;2023-04-15T14:10:47;14.90;99.90
28773;DHT22;15925;51.222;5.678;2023-04-15T14:13:15;14.80;99.90
28773;DHT22;15925;51.222;5.678;2023-04-15T14:15:41;15.00;99.90
28773;DHT22;15925;51.222;5.678;2023-04-15T14:18:07;15.10;99.90
28773;DHT22;15925;51.222;5.678;2023-04-15T14:20:33;14.80;99.90
28773;DHT22;15925;51.222;5.678;2023-04-15T14:22:58;14.70;99.90
28773;DHT22;15925;51.222;5.678;2023-04-15T14:25:25;14.60;99.90
28773;DHT22;15925;51.222;5.678;2023-04-15T14:27:52;14.50;99.90
28773;DHT22;15925;51.222;5.678;2023-04-15T14:30:18;14.50;99.90
28773;DHT22;15925;51.222;5.678;2023-04-15T14:32:43;14.50;99.90
28773;DHT22;15925;51.222;5.678;2023-04-15T14:35:09;14.40;99.90
28773;DHT22;15925;51.222;5.678;2023-04-15T14:37:35;14.50;99.90
28773;DHT22;15925;51.222;5.678;2023-04-15T14:40:01;14.60;99.90
28773;DHT22;15925;51.222;5.678;2023-04-15T14:42:27;14.70;99.90
28773;DHT22;15925;51.222;5.678;2023-04-15T14:44:52;14.80;99.90
28773;DHT22;15925;51.222;5.678;2023-04-15T14:47:19;14.60;99.90
28773;DHT22;15925;51.222;5.678;2023-04-15T14:49:45;14.70;99.90
28773;DHT22;15925;51.222;5.678;2023-04-15T14:52:11;14.50;99.90
28773;DHT22;15925;51.222;5.678;2023-04-15T14:54:37;14.70;99.90
28773;DHT22;15925;51.222;5.678;2023-04-15T14:57:02;14.80;99.90
28773;DHT22;15925;51.222;5.678;2023-04-15T14:59:28;14.90;99.90
28773;DHT22;15925;51.222;5.678;2023-04-15T15:01:54;14.80;99.90
28773;DHT22;15925;51.222;5.678;2023-04-15T15:04:20;14.90;99.90
28773;DHT22;15925;51.222;5.678;2023-04-15T15:06:45;14.80;99.90
28773;DHT22;15925;51.222;5.678;2023-04-15T15:09:11;14.90;99.90
28773;DHT22;15925;51.222;5.678;2023-04-15T15:11:37;14.80;99.90
28773;DHT22;15925;51.222;5.678;2023-04-15T15:14:03;14.70;99.90
28773;DHT22;15925;51.222;5.678;2023-04-15T15:16:29;14.70;99.90
28773;DHT22;15925;51.222;5.678;2023-04-15T15:18:55;14.90;99.90
28773;DHT22;15925;51.222;5.678;2023-04-15T15:21:20;14.70;99.90
28773;DHT22;15925;51.222;5.678;2023-04-15T15:23:46;14.80;99.90
28773;DHT22;15925;51.222;5.678;2023-04-15T15:26:13;14.70;99.90
28773;DHT22;15925;51.222;5.678;2023-04-15T15:28:39;14.70;99.90
28773;DHT22;15925;51.222;5.678;2023-04-15T15:31:04;14.70;99.90
28773;DHT22;15925;51.222;5.678;2023-04-15T15:33:30;14.70;99.90
28773;DHT22;15925;51.222;5.678;2023-04-15T15:35:57;14.70;99.90
28773;DHT22;15925;51.222;5.678;2023-04-15T15:38:23;14.50;99.90
28773;DHT22;15925;51.222;5.678;2023-04-15T15:40:49;14.50;99.90
28773;DHT22;15925;51.222;5.678;2023-04-15T15:43:15;14.40;99.90
28773;DHT22;15925;51.222;5.678;2023-04-15T15:45:41;14.40;99.90
28773;DHT22;15925;51.222;5.678;2023-04-15T15:48:07;14.30;99.90
28773;DHT22;15925;51.222;5.678;2023-04-15T15:50:33;14.30;99.90
28773;DHT22;15925;51.222;5.678;2023-04-15T15:52:58;14.40;99.90